createdAt,value
2022-08-16T00:01:33.653Z,3.58
2022-08-16T00:04:05.288Z,3.67
2022-08-16T00:06:33.756Z,4.30
2022-08-16T00:09:05.186Z,3.92
2022-08-16T00:11:34.142Z,3.53
2022-08-16T00:14:08.783Z,4.07
2022-08-16T00:17:06.071Z,4.13
2022-08-16T00:19:41.138Z,4.53
2022-08-16T00:22:13.780Z,4.25
2022-08-16T00:24:44.878Z,3.67
2022-08-16T00:27:17.570Z,3.95
2022-08-16T00:29:47.234Z,3.83
2022-08-16T00:32:17.947Z,3.88
2022-08-16T00:34:53.083Z,3.22
2022-08-16T00:37:24.387Z,3.42
2022-08-16T00:39:58.268Z,4.00
2022-08-16T00:42:31.409Z,3.85
2022-08-16T00:45:11.803Z,3.75
2022-08-16T00:47:49.049Z,3.53
2022-08-16T00:50:18.717Z,3.33
2022-08-16T00:52:50.980Z,3.83
2022-08-16T00:55:22.381Z,3.50
2022-08-16T00:57:59.640Z,3.42
2022-08-16T01:00:32.514Z,4.00
2022-08-16T01:03:04.197Z,3.78
2022-08-16T01:05:33.658Z,3.70
2022-08-16T01:08:02.824Z,3.90
2022-08-16T01:10:52.951Z,3.58
2022-08-16T01:13:26.677Z,3.60
2022-08-16T01:16:01.117Z,3.42
2022-08-16T01:18:40.013Z,3.65
2022-08-16T01:21:33.670Z,4.07
2022-08-16T01:24:52.224Z,3.40
2022-08-16T01:27:12.357Z,3.40
2022-08-16T01:29:59.021Z,3.33
2022-08-16T01:32:33.373Z,3.50
2022-08-16T01:35:21.381Z,3.35
2022-08-16T01:37:54.244Z,3.67
2022-08-16T01:40:27.839Z,3.75
2022-08-16T01:42:57.055Z,3.63
2022-08-16T01:45:39.665Z,3.38
2022-08-16T01:48:19.828Z,3.67
2022-08-16T01:51:09.407Z,2.97
2022-08-16T01:53:41.132Z,3.63
2022-08-16T01:56:24.407Z,3.20
2022-08-16T01:58:54.967Z,3.63
2022-08-16T02:01:26.138Z,3.78
2022-08-16T02:03:58.397Z,3.30
2022-08-16T02:06:34.748Z,3.33
2022-08-16T02:09:11.898Z,3.67
2022-08-16T02:11:48.218Z,3.42
2022-08-16T02:14:26.558Z,2.63
2022-08-16T02:16:56.298Z,3.10
2022-08-16T02:19:59.505Z,2.83
2022-08-16T02:22:34.479Z,3.43
2022-08-16T02:25:10.613Z,2.90
2022-08-16T02:27:42.031Z,3.08
2022-08-16T02:33:03.291Z,2.65
2022-08-16T02:35:32.637Z,2.70
2022-08-16T02:38:01.852Z,3.00
2022-08-16T02:40:37.972Z,2.90
2022-08-16T02:43:08.682Z,3.70
2022-08-16T02:45:36.919Z,3.08
2022-08-16T02:48:29.435Z,2.65
2022-08-16T02:51:10.533Z,2.40
2022-08-16T02:53:43.227Z,3.42
2022-08-16T02:56:14.605Z,3.08
2022-08-16T02:58:45.385Z,3.22
2022-08-16T03:01:25.339Z,3.22
2022-08-16T03:04:39.255Z,3.13
2022-08-16T03:06:56.835Z,2.83
2022-08-16T03:09:28.522Z,3.13
2022-08-16T03:11:58.264Z,2.88
2022-08-16T03:14:30.477Z,2.00
2022-08-16T03:17:00.749Z,2.70
2022-08-16T03:22:28.807Z,2.83
2022-08-16T03:25:00.838Z,2.05
2022-08-16T03:27:31.236Z,2.30
2022-08-16T03:30:16.235Z,2.28
2022-08-16T03:32:51.163Z,2.00
2022-08-16T03:35:21.354Z,1.80
2022-08-16T03:38:02.792Z,2.42
2022-08-16T03:40:34.870Z,1.95
2022-08-16T03:43:19.847Z,1.92
2022-08-16T03:45:52.517Z,1.80
2022-08-16T03:48:36.373Z,1.77
2022-08-16T03:51:08.829Z,2.00
2022-08-16T03:53:38.626Z,1.92
2022-08-16T03:56:18.556Z,2.13
2022-08-16T04:01:21.138Z,2.13
2022-08-16T04:03:50.914Z,1.60
2022-08-16T04:06:22.272Z,1.67
2022-08-16T04:08:50.685Z,1.70
2022-08-16T04:11:19.323Z,1.67
2022-08-16T04:13:59.961Z,2.70
2022-08-16T04:16:37.931Z,1.83
2022-08-16T04:19:06.279Z,1.40
2022-08-16T04:21:45.989Z,1.75
2022-08-16T04:24:16.047Z,1.75
2022-08-16T04:26:46.499Z,1.70
2022-08-16T04:29:23.305Z,2.00
2022-08-16T04:31:58.168Z,2.08
2022-08-16T04:34:31.202Z,1.65
2022-08-16T04:37:01.851Z,2.10
2022-08-16T04:39:46.198Z,2.00
2022-08-16T04:42:16.488Z,1.63
2022-08-16T04:44:54.694Z,1.80
2022-08-16T04:47:32.932Z,2.15
2022-08-16T04:50:02.149Z,1.95
2022-08-16T04:52:34.830Z,2.15
2022-08-16T04:55:08.024Z,2.15
2022-08-16T04:57:37.418Z,1.65
2022-08-16T05:00:30.234Z,2.17
2022-08-16T05:03:07.472Z,1.95
2022-08-16T05:05:45.352Z,1.50
2022-08-16T05:08:28.894Z,1.70
2022-08-16T05:11:01.371Z,2.15
2022-08-16T05:13:41.112Z,1.70
2022-08-16T05:16:16.570Z,1.65
2022-08-16T05:18:52.121Z,2.97
2022-08-16T05:21:22.139Z,1.60
2022-08-16T05:23:51.552Z,1.45
2022-08-16T05:26:24.473Z,1.60
2022-08-16T05:28:56.223Z,1.83
2022-08-16T05:31:29.717Z,1.75
2022-08-16T05:34:03.641Z,1.85
2022-08-16T05:36:34.240Z,2.42
2022-08-16T05:39:07.612Z,1.65
2022-08-16T05:41:45.464Z,2.10
2022-08-16T05:44:22.920Z,1.48
2022-08-16T05:46:54.987Z,1.60
2022-08-16T05:49:38.657Z,1.77
2022-08-16T05:52:11.146Z,1.80
2022-08-16T05:54:45.942Z,1.85
2022-08-16T05:57:15.614Z,1.52
2022-08-16T05:59:43.755Z,1.75
2022-08-16T06:02:12.731Z,1.60
2022-08-16T06:04:45.188Z,1.80
2022-08-16T06:07:24.837Z,1.50
2022-08-16T06:09:59.712Z,1.83
2022-08-16T06:12:31.068Z,2.13
2022-08-16T06:15:01.933Z,2.20
2022-08-16T06:17:41.513Z,1.17
2022-08-16T06:20:23.182Z,1.60
2022-08-16T06:22:57.309Z,1.30
2022-08-16T06:25:35.464Z,1.55
2022-08-16T06:28:08.913Z,1.52
2022-08-16T06:30:44.089Z,1.50
2022-08-16T06:33:19.699Z,1.42
2022-08-16T06:35:55.208Z,2.05
2022-08-16T06:38:33.936Z,1.55
2022-08-16T06:41:05.603Z,1.40
2022-08-16T06:43:35.703Z,1.67
2022-08-16T06:46:06.231Z,2.58
2022-08-16T06:48:43.158Z,1.77
2022-08-16T06:51:14.819Z,1.20
2022-08-16T06:56:14.708Z,1.42
2022-08-16T06:58:53.272Z,1.60
2022-08-16T07:01:46.262Z,1.60
2022-08-16T07:04:12.002Z,1.38
2022-08-16T07:06:43.600Z,1.60
2022-08-16T07:09:15.840Z,1.50
2022-08-16T07:11:47.419Z,1.55
2022-08-16T07:14:24.222Z,1.25
2022-08-16T07:16:57.932Z,1.23
2022-08-16T07:19:48.343Z,1.90
2022-08-16T07:22:37.548Z,1.25
2022-08-16T07:25:08.167Z,1.30
2022-08-16T07:27:37.135Z,1.27
2022-08-16T07:30:45.771Z,1.92
2022-08-16T07:32:56.764Z,1.60
2022-08-16T07:35:25.364Z,1.20
2022-08-16T07:37:55.004Z,2.08
2022-08-16T07:40:49.044Z,1.48
2022-08-16T07:43:11.994Z,1.40
2022-08-16T07:45:42.219Z,2.50
2022-08-16T07:48:12.387Z,1.67
2022-08-16T07:50:56.660Z,2.00
2022-08-16T07:53:31.331Z,1.30
2022-08-16T07:56:01.418Z,1.30
2022-08-16T07:58:36.194Z,1.70
2022-08-16T08:01:10.347Z,1.17
2022-08-16T08:03:44.934Z,1.13
2022-08-16T08:06:17.076Z,1.55
2022-08-16T08:08:51.018Z,1.75
2022-08-16T08:11:23.574Z,1.10
2022-08-16T08:16:30.578Z,1.30
2022-08-16T08:19:02.192Z,1.75
2022-08-16T08:24:22.345Z,1.45
2022-08-16T08:27:00.239Z,1.95
2022-08-16T08:29:36.884Z,1.40
2022-08-16T08:32:58.338Z,1.38
2022-08-16T08:35:00.491Z,1.60
2022-08-16T08:37:54.494Z,1.67
2022-08-16T08:40:24.677Z,1.60
2022-08-16T08:42:57.666Z,1.35
2022-08-16T08:45:47.282Z,1.48
2022-08-16T08:48:34.086Z,1.23
2022-08-16T08:51:09.166Z,1.90
2022-08-16T08:53:38.089Z,1.30
2022-08-16T08:56:22.474Z,1.52
2022-08-16T08:58:54.816Z,1.50
2022-08-16T09:01:31.586Z,1.70
2022-08-16T09:04:06.025Z,1.77
2022-08-16T09:06:35.185Z,2.03
2022-08-16T09:09:04.992Z,1.50
2022-08-16T09:11:40.993Z,1.30
2022-08-16T09:14:24.705Z,1.52
2022-08-16T09:17:01.597Z,1.35
2022-08-16T09:19:34.656Z,1.40
2022-08-16T09:22:03.370Z,2.22
2022-08-16T09:24:52.089Z,1.40
2022-08-16T09:27:23.624Z,1.58
2022-08-16T09:29:59.797Z,1.50
2022-08-16T09:32:30.636Z,1.33
2022-08-16T09:35:00.034Z,1.10
2022-08-16T09:37:29.738Z,1.40
2022-08-16T09:39:59.649Z,1.50
2022-08-16T09:42:30.836Z,1.30
2022-08-16T09:45:18.986Z,1.90
2022-08-16T09:50:36.812Z,1.70
2022-08-16T09:53:15.207Z,1.45
2022-08-16T09:55:49.368Z,1.25
2022-08-16T09:58:37.814Z,1.40
2022-08-16T10:01:11.528Z,1.50
2022-08-16T10:04:02.794Z,1.45
2022-08-16T10:06:33.570Z,1.40
2022-08-16T10:09:05.982Z,1.65
2022-08-16T10:11:52.778Z,1.73
2022-08-16T10:14:24.901Z,1.00
2022-08-16T10:17:03.601Z,1.38
2022-08-16T10:19:33.552Z,1.75
2022-08-16T10:22:05.298Z,1.55
2022-08-16T10:24:34.842Z,1.58
2022-08-16T10:27:21.664Z,1.75
2022-08-16T10:30:01.242Z,1.70
2022-08-16T10:32:35.666Z,1.63
2022-08-16T10:35:10.090Z,1.90
2022-08-16T10:37:38.328Z,1.30
2022-08-16T10:40:29.012Z,1.40
2022-08-16T10:43:00.292Z,1.58
2022-08-16T10:45:37.014Z,1.60
2022-08-16T10:48:27.522Z,3.20
2022-08-16T10:50:58.327Z,1.98
2022-08-16T10:53:32.637Z,1.23
2022-08-16T10:56:02.616Z,1.73
2022-08-16T10:58:34.122Z,1.80
2022-08-16T11:03:57.317Z,1.40
2022-08-16T11:06:27.909Z,1.02
2022-08-16T11:14:35.376Z,1.75
2022-08-16T11:17:11.406Z,1.70
2022-08-16T11:22:47.173Z,1.45
2022-08-16T11:28:08.419Z,1.13
2022-08-16T11:30:38.734Z,2.63
2022-08-16T11:33:09.083Z,1.25
2022-08-16T11:35:44.077Z,1.15
2022-08-16T11:38:46.394Z,1.35
2022-08-16T11:41:04.341Z,1.40
2022-08-16T11:43:34.901Z,1.58
2022-08-16T11:46:44.190Z,1.70
2022-08-16T11:48:57.317Z,2.50
2022-08-16T11:51:25.952Z,1.40
2022-08-16T11:53:54.224Z,1.30
2022-08-16T11:56:39.621Z,1.95
2022-08-16T11:59:12.764Z,1.52
2022-08-16T12:01:44.380Z,2.38
2022-08-16T12:04:25.806Z,2.45
2022-08-16T12:06:54.582Z,1.65
2022-08-16T12:09:24.726Z,1.52
2022-08-16T12:11:53.970Z,1.33
2022-08-16T12:14:23.318Z,2.03
2022-08-16T12:16:55.479Z,1.85
2022-08-16T12:19:33.489Z,1.50
2022-08-16T12:22:05.648Z,1.50
2022-08-16T12:24:51.113Z,1.73
2022-08-16T12:27:23.114Z,1.80
2022-08-16T12:29:52.667Z,2.90
2022-08-16T12:32:37.492Z,1.75
2022-08-16T12:35:12.303Z,1.65
2022-08-16T12:37:42.122Z,1.90
2022-08-16T12:40:23.929Z,1.45
2022-08-16T12:42:58.841Z,2.38
2022-08-16T12:45:29.948Z,1.90
2022-08-16T12:48:33.586Z,1.53
2022-08-16T12:51:13.666Z,1.40
2022-08-16T12:53:49.739Z,1.73
2022-08-16T12:56:19.433Z,1.33
2022-08-16T12:58:51.985Z,1.70
2022-08-16T13:01:22.594Z,1.40
2022-08-16T13:04:08.260Z,1.50
2022-08-16T13:06:41.392Z,1.65
2022-08-16T13:09:20.501Z,1.63
2022-08-16T13:12:00.139Z,1.58
2022-08-16T13:14:33.823Z,1.30
2022-08-16T13:17:03.949Z,1.50
2022-08-16T13:20:03.360Z,2.30
2022-08-16T13:22:25.322Z,1.52
2022-08-16T13:24:54.410Z,2.45
2022-08-16T13:27:59.270Z,2.10
2022-08-16T13:30:36.345Z,1.95
2022-08-16T13:33:00.699Z,2.60
2022-08-16T13:35:34.343Z,1.80
2022-08-16T13:38:04.351Z,1.60
2022-08-16T13:40:34.843Z,1.42
2022-08-16T13:43:03.239Z,1.75
2022-08-16T13:45:50.268Z,1.25
2022-08-16T13:48:24.385Z,1.63
2022-08-16T13:50:54.749Z,1.77
2022-08-16T13:53:26.239Z,2.28
2022-08-16T13:55:58.568Z,1.23
2022-08-16T13:58:37.164Z,1.70
2022-08-16T14:01:17.987Z,1.45
2022-08-16T14:03:47.024Z,1.40
2022-08-16T14:06:15.398Z,1.33
2022-08-16T14:08:58.754Z,1.30
2022-08-16T14:11:27.872Z,1.77
2022-08-16T14:13:57.601Z,1.80
2022-08-16T14:16:33.677Z,1.70
2022-08-16T14:19:03.189Z,1.77
2022-08-16T14:21:34.833Z,1.50
2022-08-16T14:24:08.136Z,1.58
2022-08-16T14:26:52.757Z,1.77
2022-08-16T14:29:21.978Z,1.83
2022-08-16T14:31:53.577Z,2.08
2022-08-16T14:34:22.349Z,1.80
2022-08-16T14:36:54.322Z,1.75
2022-08-16T14:39:24.271Z,2.05
2022-08-16T14:41:53.698Z,1.63
2022-08-16T14:44:26.222Z,2.03
2022-08-16T14:46:55.371Z,3.45
2022-08-16T14:49:25.066Z,2.13
2022-08-16T14:51:53.340Z,2.10
2022-08-16T14:54:21.756Z,1.75
2022-08-16T14:56:55.269Z,1.55
2022-08-16T14:59:23.989Z,2.17
2022-08-16T15:01:59.132Z,1.92
2022-08-16T15:04:39.478Z,2.03
2022-08-16T15:07:11.311Z,2.17
2022-08-16T15:09:44.093Z,2.22
2022-08-16T15:12:33.848Z,1.88
2022-08-16T15:15:11.959Z,2.00
2022-08-16T15:17:55.816Z,1.67
2022-08-16T15:20:26.285Z,1.77
2022-08-16T15:22:55.123Z,2.63
2022-08-16T15:25:29.221Z,2.70
2022-08-16T15:28:04.558Z,1.92
2022-08-16T15:30:59.472Z,1.27
2022-08-16T15:33:26.911Z,1.63
2022-08-16T15:35:58.158Z,1.35
2022-08-16T15:38:58.098Z,2.00
2022-08-16T15:41:46.864Z,2.00
2022-08-16T15:44:22.393Z,1.73
2022-08-16T15:46:55.868Z,1.45
2022-08-16T15:49:37.252Z,1.63
2022-08-16T15:52:15.135Z,1.80
2022-08-16T15:54:53.191Z,1.88
2022-08-16T15:57:24.687Z,1.73
2022-08-16T15:59:57.762Z,2.03
2022-08-16T16:02:35.305Z,1.75
2022-08-16T16:05:09.821Z,1.30
2022-08-16T16:07:56.107Z,1.23
2022-08-16T16:10:29.723Z,1.55
2022-08-16T16:12:59.820Z,1.38
2022-08-16T16:15:33.294Z,1.70
2022-08-16T16:18:09.947Z,1.27
2022-08-16T16:20:40.051Z,1.27
2022-08-16T16:23:11.071Z,1.42
2022-08-16T16:25:43.808Z,2.30
2022-08-16T16:29:05.314Z,2.15
2022-08-16T16:31:07.173Z,2.87
2022-08-16T16:33:39.800Z,3.28
2022-08-16T16:36:09.558Z,2.17
2022-08-16T16:38:39.220Z,1.85
2022-08-16T16:41:11.150Z,1.40
2022-08-16T16:43:41.355Z,2.10
2022-08-16T16:46:40.124Z,3.05
2022-08-16T16:49:03.969Z,1.98
2022-08-16T16:51:40.763Z,1.40
2022-08-16T16:54:13.176Z,1.60
2022-08-16T16:56:49.746Z,1.92
2022-08-16T16:59:18.847Z,1.85
2022-08-16T17:01:59.958Z,2.75
2022-08-16T17:04:39.656Z,2.13
2022-08-16T17:07:10.942Z,2.00
2022-08-16T17:09:41.381Z,2.33
2022-08-16T17:12:12.285Z,2.25
2022-08-16T17:14:58.976Z,2.25
2022-08-16T17:17:29.653Z,2.47
2022-08-16T17:19:59.296Z,3.03
2022-08-16T17:22:32.812Z,2.05
2022-08-16T17:25:02.042Z,2.67
2022-08-16T17:27:32.573Z,2.38
2022-08-16T17:30:02.889Z,2.17
2022-08-16T17:32:50.410Z,2.40
2022-08-16T17:35:34.023Z,1.98
2022-08-16T17:38:06.128Z,2.35
2022-08-16T17:40:47.213Z,2.20
2022-08-16T17:43:30.825Z,2.22
2022-08-16T17:45:59.435Z,2.13
2022-08-16T17:48:31.183Z,2.20
2022-08-16T17:51:00.491Z,2.10
2022-08-16T17:53:28.826Z,1.85
2022-08-16T17:55:57.381Z,2.50
2022-08-16T17:58:26.190Z,1.67
2022-08-16T18:00:56.756Z,2.00
2022-08-16T18:04:02.993Z,2.00
2022-08-16T18:06:18.799Z,2.22
2022-08-16T18:08:50.094Z,3.30
2022-08-16T18:11:25.849Z,2.45
2022-08-16T18:13:56.551Z,2.60
2022-08-16T18:16:25.568Z,2.25
2022-08-16T18:18:53.828Z,2.70
2022-08-16T18:21:41.194Z,2.30
2022-08-16T18:24:09.796Z,3.10
2022-08-16T18:26:39.248Z,2.30
2022-08-16T18:29:08.533Z,2.13
2022-08-16T18:31:36.748Z,2.60
2022-08-16T18:34:06.382Z,2.10
2022-08-16T18:36:35.901Z,2.15
2022-08-16T18:39:04.247Z,1.95
2022-08-16T18:41:37.202Z,2.28
2022-08-16T18:44:24.743Z,2.67
2022-08-16T18:46:55.701Z,2.05
2022-08-16T18:49:24.036Z,1.98
2022-08-16T18:51:57.733Z,1.75
2022-08-16T18:54:26.751Z,2.15
2022-08-16T18:56:57.768Z,2.30
2022-08-16T19:02:00.121Z,2.63
2022-08-16T19:04:56.535Z,2.88
2022-08-16T19:07:31.245Z,2.13
2022-08-16T19:10:01.390Z,1.85
2022-08-16T19:12:38.539Z,1.92
2022-08-16T19:15:15.979Z,2.15
2022-08-16T19:17:45.638Z,2.00
2022-08-16T19:20:15.663Z,2.60
2022-08-16T19:23:05.865Z,2.03
2022-08-16T19:25:47.395Z,1.95
2022-08-16T19:28:49.841Z,2.15
2022-08-16T19:31:10.933Z,2.40
2022-08-16T19:33:39.654Z,2.50
2022-08-16T19:36:08.259Z,2.13
2022-08-16T19:38:46.752Z,2.05
2022-08-16T19:41:16.205Z,6.15
2022-08-16T19:43:44.484Z,6.28
2022-08-16T19:46:12.688Z,10.40
2022-08-16T19:48:40.898Z,3.03
2022-08-16T19:51:10.353Z,2.67
2022-08-16T19:53:38.678Z,2.85
2022-08-16T19:56:08.408Z,2.72
2022-08-16T19:58:36.993Z,2.30
2022-08-16T20:01:05.263Z,2.97
2022-08-16T20:03:33.453Z,2.33
2022-08-16T20:06:01.621Z,2.47
2022-08-16T20:08:30.493Z,2.75
2022-08-16T20:10:58.651Z,2.80
2022-08-16T20:13:28.492Z,2.40
2022-08-16T20:15:56.974Z,2.78
2022-08-16T20:18:25.777Z,2.80
2022-08-16T20:20:55.874Z,2.55
2022-08-16T20:23:25.198Z,2.78
2022-08-16T20:25:55.960Z,2.70
2022-08-16T20:28:33.409Z,2.33
2022-08-16T20:31:14.196Z,2.10
2022-08-16T20:33:42.391Z,2.88
2022-08-16T20:36:16.362Z,2.90
2022-08-16T20:38:47.621Z,2.67
2022-08-16T20:41:16.493Z,2.80
2022-08-16T20:43:45.468Z,2.58
2022-08-16T20:46:15.459Z,2.42
2022-08-16T20:48:44.150Z,2.72
2022-08-16T20:51:12.837Z,2.70
2022-08-16T20:53:42.074Z,3.00
2022-08-16T20:56:11.650Z,3.88
2022-08-16T20:58:40.248Z,2.25
2022-08-16T21:01:09.193Z,2.35
2022-08-16T21:03:39.332Z,2.13
2022-08-16T21:06:08.098Z,1.98
2022-08-16T21:08:51.472Z,1.98
2022-08-16T21:11:23.684Z,2.60
2022-08-16T21:13:55.378Z,2.63
2022-08-16T21:16:29.372Z,1.92
2022-08-16T21:19:00.545Z,2.35
2022-08-16T21:21:33.491Z,1.95
2022-08-16T21:24:02.130Z,2.13
2022-08-16T21:26:30.336Z,3.95
2022-08-16T21:28:58.513Z,3.13
2022-08-16T21:31:26.916Z,2.63
2022-08-16T21:33:55.803Z,2.08
2022-08-16T21:36:35.665Z,2.10
2022-08-16T21:39:06.681Z,1.92
2022-08-16T21:41:35.523Z,2.33
2022-08-16T21:44:04.038Z,2.17
2022-08-16T21:46:33.761Z,2.10
2022-08-16T21:49:01.958Z,2.50
2022-08-16T21:51:31.645Z,2.78
2022-08-16T21:53:59.917Z,1.80
2022-08-16T21:56:29.449Z,2.38
2022-08-16T21:58:57.716Z,2.15
2022-08-16T22:01:26.751Z,2.67
2022-08-16T22:04:01.589Z,2.28
2022-08-16T22:06:45.028Z,2.65
2022-08-16T22:09:16.623Z,2.38
2022-08-16T22:11:45.498Z,2.08
2022-08-16T22:14:13.924Z,2.13
2022-08-16T22:16:43.625Z,2.42
2022-08-16T22:19:13.354Z,2.90
2022-08-16T22:21:41.982Z,2.35
2022-08-16T22:24:11.582Z,2.10
2022-08-16T22:26:43.332Z,2.60
2022-08-16T22:29:14.151Z,2.40
2022-08-16T22:31:43.362Z,2.13
2022-08-16T22:34:11.579Z,2.28
2022-08-16T22:36:40.158Z,2.35
2022-08-16T22:39:10.449Z,2.72
2022-08-16T22:41:42.240Z,2.45
2022-08-16T22:44:10.802Z,2.47
2022-08-16T22:46:39.170Z,2.50
2022-08-16T22:49:08.374Z,2.28
2022-08-16T22:51:37.971Z,2.58
2022-08-16T22:54:44.329Z,2.38
2022-08-16T22:56:57.839Z,2.80
2022-08-16T22:59:26.311Z,2.50
2022-08-16T23:01:54.884Z,2.13
2022-08-16T23:04:24.900Z,2.28
2022-08-16T23:06:53.413Z,2.67
2022-08-16T23:09:21.885Z,2.80
2022-08-16T23:11:50.155Z,2.88
2022-08-16T23:14:20.366Z,2.72
2022-08-16T23:16:48.462Z,2.58
2022-08-16T23:19:17.982Z,2.58
2022-08-16T23:21:49.460Z,2.78
2022-08-16T23:26:49.403Z,2.65
2022-08-16T23:29:23.571Z,2.00
2022-08-16T23:31:54.603Z,2.30
2022-08-16T23:34:22.877Z,2.28
2022-08-16T23:36:51.188Z,2.17
2022-08-16T23:39:19.389Z,2.67
2022-08-16T23:41:47.531Z,2.78
2022-08-16T23:44:57.076Z,2.08
2022-08-16T23:47:06.468Z,2.85
2022-08-16T23:49:59.217Z,2.65
2022-08-16T23:52:53.120Z,2.38
2022-08-16T23:55:11.686Z,3.22
2022-08-16T23:57:39.942Z,2.60
